sensor_id;sensor_type;location;lat;lon;timestamp;temperature;humidity
3055;DHT22;1537;52.018;8.542;2023-09-07T00:01:59;19.70;99.90
3055;DHT22;1537;52.018;8.542;2023-09-07T00:05:22;19.70;99.90
3055;DHT22;1537;52.018;8.542;2023-09-07T00:08:46;19.60;99.90
3055;DHT22;1537;52.018;8.542;2023-09-07T00:12:10;19.60;99.90
3055;DHT22;1537;52.018;8.542;2023-09-07T00:15:38;19.60;99.90
3055;DHT22;1537;52.018;8.542;2023-09-07T00:19:11;19.50;99.90
3055;DHT22;1537;52.018;8.542;2023-09-07T00:22:37;19.40;99.90
3055;DHT22;1537;52.018;8.542;2023-09-07T00:26:03;19.40;99.90
3055;DHT22;1537;52.018;8.542;2023-09-07T00:29:27;19.40;99.90
3055;DHT22;1537;52.018;8.542;2023-09-07T00:32:51;19.30;99.90
3055;DHT22;1537;52.018;8.542;2023-09-07T00:36:19;19.30;99.90
3055;DHT22;1537;52.018;8.542;2023-09-07T00:39:43;19.20;99.90
3055;DHT22;1537;52.018;8.542;2023-09-07T00:43:07;19.20;99.90
3055;DHT22;1537;52.018;8.542;2023-09-07T00:46:33;19.20;99.90
3055;DHT22;1537;52.018;8.542;2023-09-07T00:49:56;19.20;99.90
3055;DHT22;1537;52.018;8.542;2023-09-07T00:53:23;19.10;99.90
3055;DHT22;1537;52.018;8.542;2023-09-07T00:56:47;19.10;99.90
3055;DHT22;1537;52.018;8.542;2023-09-07T01:00:12;19.00;99.90
3055;DHT22;1537;52.018;8.542;2023-09-07T01:03:39;19.00;99.90
3055;DHT22;1537;52.018;8.542;2023-09-07T01:07:06;19.00;99.90
3055;DHT22;1537;52.018;8.542;2023-09-07T01:10:35;19.00;99.90
3055;DHT22;1537;52.018;8.542;2023-09-07T01:13:59;19.00;99.90
3055;DHT22;1537;52.018;8.542;2023-09-07T01:17:24;18.90;99.90
3055;DHT22;1537;52.018;8.542;2023-09-07T01:20:52;18.90;99.90
3055;DHT22;1537;52.018;8.542;2023-09-07T01:24:22;18.80;99.90
3055;DHT22;1537;52.018;8.542;2023-09-07T01:27:47;18.70;99.90
3055;DHT22;1537;52.018;8.542;2023-09-07T01:31:11;18.60;99.90
3055;DHT22;1537;52.018;8.542;2023-09-07T01:34:35;18.50;99.90
3055;DHT22;1537;52.018;8.542;2023-09-07T01:38:03;18.50;99.90
3055;DHT22;1537;52.018;8.542;2023-09-07T01:41:31;18.40;99.90
3055;DHT22;1537;52.018;8.542;2023-09-07T01:44:55;18.50;99.90
3055;DHT22;1537;52.018;8.542;2023-09-07T01:48:19;18.50;99.90
3055;DHT22;1537;52.018;8.542;2023-09-07T01:51:43;18.40;99.90
3055;DHT22;1537;52.018;8.542;2023-09-07T01:55:08;18.40;99.90
3055;DHT22;1537;52.018;8.542;2023-09-07T01:58:34;18.40;99.90
3055;DHT22;1537;52.018;8.542;2023-09-07T02:01:59;18.40;99.90
3055;DHT22;1537;52.018;8.542;2023-09-07T02:05:23;18.30;99.90
3055;DHT22;1537;52.018;8.542;2023-09-07T02:08:47;18.30;99.90
3055;DHT22;1537;52.018;8.542;2023-09-07T02:12:11;18.20;99.90
3055;DHT22;1537;52.018;8.542;2023-09-07T02:15:42;18.20;99.90
3055;DHT22;1537;52.018;8.542;2023-09-07T02:19:06;18.20;99.90
3055;DHT22;1537;52.018;8.542;2023-09-07T02:22:30;18.20;99.90
3055;DHT22;1537;52.018;8.542;2023-09-07T02:25:54;18.10;99.90
3055;DHT22;1537;52.018;8.542;2023-09-07T02:29:19;18.10;99.90
3055;DHT22;1537;52.018;8.542;2023-09-07T02:32:46;18.10;99.90
3055;DHT22;1537;52.018;8.542;2023-09-07T02:36:10;18.10;99.90
3055;DHT22;1537;52.018;8.542;2023-09-07T02:39:34;18.00;99.90
3055;DHT22;1537;52.018;8.542;2023-09-07T02:43:00;18.00;99.90
3055;DHT22;1537;52.018;8.542;2023-09-07T02:46:23;18.00;99.90
3055;DHT22;1537;52.018;8.542;2023-09-07T02:49:52;18.00;99.90
3055;DHT22;1537;52.018;8.542;2023-09-07T02:53:20;17.90;99.90
3055;DHT22;1537;52.018;8.542;2023-09-07T02:56:44;17.90;99.90
3055;DHT22;1537;52.018;8.542;2023-09-07T03:00:08;17.90;99.90
3055;DHT22;1537;52.018;8.542;2023-09-07T03:03:38;17.80;99.90
3055;DHT22;1537;52.018;8.542;2023-09-07T03:07:06;17.70;99.90
3055;DHT22;1537;52.018;8.542;2023-09-07T03:10:31;17.70;99.90
3055;DHT22;1537;52.018;8.542;2023-09-07T03:13:55;17.60;99.90
3055;DHT22;1537;52.018;8.542;2023-09-07T03:17:19;17.50;99.90
3055;DHT22;1537;52.018;8.542;2023-09-07T03:20:45;17.50;99.90
3055;DHT22;1537;52.018;8.542;2023-09-07T03:24:11;17.40;99.90
3055;DHT22;1537;52.018;8.542;2023-09-07T03:27:36;17.40;99.90
3055;DHT22;1537;52.018;8.542;2023-09-07T03:31:00;17.40;99.90
3055;DHT22;1537;52.018;8.542;2023-09-07T03:34:25;17.40;99.90
3055;DHT22;1537;52.018;8.542;2023-09-07T03:37:50;17.30;99.90
3055;DHT22;1537;52.018;8.542;2023-09-07T03:41:15;17.20;99.90
3055;DHT22;1537;52.018;8.542;2023-09-07T03:44:39;17.20;99.90
3055;DHT22;1537;52.018;8.542;2023-09-07T03:48:05;17.10;99.90
3055;DHT22;1537;52.018;8.542;2023-09-07T03:51:30;17.10;99.90
3055;DHT22;1537;52.018;8.542;2023-09-07T03:54:54;17.10;99.90
3055;DHT22;1537;52.018;8.542;2023-09-07T03:58:21;17.10;99.90
3055;DHT22;1537;52.018;8.542;2023-09-07T04:01:46;17.10;99.90
3055;DHT22;1537;52.018;8.542;2023-09-07T04:05:10;17.10;99.90
3055;DHT22;1537;52.018;8.542;2023-09-07T04:08:35;17.10;99.90
3055;DHT22;1537;52.018;8.542;2023-09-07T04:11:59;17.00;99.90
3055;DHT22;1537;52.018;8.542;2023-09-07T04:15:25;17.00;99.90
3055;DHT22;1537;52.018;8.542;2023-09-07T04:18:49;17.00;99.90
3055;DHT22;1537;52.018;8.542;2023-09-07T04:22:13;17.00;99.90
3055;DHT22;1537;52.018;8.542;2023-09-07T04:25:37;17.00;99.90
3055;DHT22;1537;52.018;8.542;2023-09-07T04:29:03;17.00;99.90
3055;DHT22;1537;52.018;8.542;2023-09-07T04:32:29;16.90;99.90
3055;DHT22;1537;52.018;8.542;2023-09-07T04:35:54;16.90;99.90
3055;DHT22;1537;52.018;8.542;2023-09-07T04:39:18;16.80;99.90
3055;DHT22;1537;52.018;8.542;2023-09-07T04:42:42;16.80;99.90
3055;DHT22;1537;52.018;8.542;2023-09-07T04:46:06;16.80;99.90
3055;DHT22;1537;52.018;8.542;2023-09-07T04:49:34;16.80;99.90
3055;DHT22;1537;52.018;8.542;2023-09-07T04:52:58;16.80;99.90
3055;DHT22;1537;52.018;8.542;2023-09-07T04:56:23;16.90;99.90
3055;DHT22;1537;52.018;8.542;2023-09-07T04:59:48;16.90;99.90
3055;DHT22;1537;52.018;8.542;2023-09-07T05:03:15;16.80;99.90
3055;DHT22;1537;52.018;8.542;2023-09-07T05:06:41;16.80;99.90
3055;DHT22;1537;52.018;8.542;2023-09-07T05:10:08;16.80;99.90
3055;DHT22;1537;52.018;8.542;2023-09-07T05:13:36;16.90;99.90
3055;DHT22;1537;52.018;8.542;2023-09-07T05:17:00;17.10;99.90
3055;DHT22;1537;52.018;8.542;2023-09-07T05:20:25;17.60;99.90
3055;DHT22;1537;52.018;8.542;2023-09-07T05:23:51;18.00;99.90
3055;DHT22;1537;52.018;8.542;2023-09-07T05:27:16;18.70;99.90
3055;DHT22;1537;52.018;8.542;2023-09-07T05:30:42;19.50;99.90
3055;DHT22;1537;52.018;8.542;2023-09-07T05:34:08;20.10;99.90
3055;DHT22;1537;52.018;8.542;2023-09-07T05:37:32;20.70;99.90
3055;DHT22;1537;52.018;8.542;2023-09-07T05:40:58;21.30;99.90
3055;DHT22;1537;52.018;8.542;2023-09-07T05:44:23;21.80;99.90
3055;DHT22;1537;52.018;8.542;2023-09-07T05:47:48;22.40;99.90
3055;DHT22;1537;52.018;8.542;2023-09-07T05:51:12;22.90;99.90
3055;DHT22;1537;52.018;8.542;2023-09-07T05:54:36;23.40;99.90
3055;DHT22;1537;52.018;8.542;2023-09-07T05:58:05;23.70;99.90
3055;DHT22;1537;52.018;8.542;2023-09-07T06:01:36;24.00;99.90
3055;DHT22;1537;52.018;8.542;2023-09-07T06:05:01;24.50;99.90
3055;DHT22;1537;52.018;8.542;2023-09-07T06:08:30;25.30;99.90
3055;DHT22;1537;52.018;8.542;2023-09-07T06:11:55;25.50;99.90
3055;DHT22;1537;52.018;8.542;2023-09-07T06:15:21;24.40;99.90
3055;DHT22;1537;52.018;8.542;2023-09-07T06:18:46;23.90;99.90
3055;DHT22;1537;52.018;8.542;2023-09-07T06:22:12;23.50;99.90
3055;DHT22;1537;52.018;8.542;2023-09-07T06:25:36;24.00;99.90
3055;DHT22;1537;52.018;8.542;2023-09-07T06:29:00;24.20;99.90
3055;DHT22;1537;52.018;8.542;2023-09-07T06:32:25;24.80;99.90
3055;DHT22;1537;52.018;8.542;2023-09-07T06:35:49;25.50;99.90
3055;DHT22;1537;52.018;8.542;2023-09-07T06:39:13;26.10;99.90
3055;DHT22;1537;52.018;8.542;2023-09-07T06:42:37;26.10;99.90
3055;DHT22;1537;52.018;8.542;2023-09-07T06:46:09;27.20;99.40
3055;DHT22;1537;52.018;8.542;2023-09-07T06:49:34;27.60;98.20
3055;DHT22;1537;52.018;8.542;2023-09-07T06:52:59;27.30;97.80
3055;DHT22;1537;52.018;8.542;2023-09-07T06:56:24;27.70;97.20
3055;DHT22;1537;52.018;8.542;2023-09-07T06:59:49;28.60;96.10
3055;DHT22;1537;52.018;8.542;2023-09-07T07:03:14;28.50;95.50
3055;DHT22;1537;52.018;8.542;2023-09-07T07:06:45;28.90;95.30
3055;DHT22;1537;52.018;8.542;2023-09-07T07:10:10;29.10;94.60
3055;DHT22;1537;52.018;8.542;2023-09-07T07:13:37;29.60;93.70
3055;DHT22;1537;52.018;8.542;2023-09-07T07:17:01;29.90;93.30
3055;DHT22;1537;52.018;8.542;2023-09-07T07:20:28;30.30;92.40
3055;DHT22;1537;52.018;8.542;2023-09-07T07:23:53;30.80;91.70
3055;DHT22;1537;52.018;8.542;2023-09-07T07:27:17;29.40;92.80
3055;DHT22;1537;52.018;8.542;2023-09-07T07:30:41;30.20;91.90
3055;DHT22;1537;52.018;8.542;2023-09-07T07:34:05;31.00;90.90
3055;DHT22;1537;52.018;8.542;2023-09-07T07:37:29;30.20;91.60
3055;DHT22;1537;52.018;8.542;2023-09-07T07:40:54;31.10;90.80
3055;DHT22;1537;52.018;8.542;2023-09-07T07:44:18;32.10;89.50
3055;DHT22;1537;52.018;8.542;2023-09-07T07:47:43;32.60;87.80
3055;DHT22;1537;52.018;8.542;2023-09-07T07:51:07;32.70;86.90
3055;DHT22;1537;52.018;8.542;2023-09-07T07:54:36;33.20;84.80
3055;DHT22;1537;52.018;8.542;2023-09-07T07:58:02;33.80;83.10
3055;DHT22;1537;52.018;8.542;2023-09-07T08:01:26;33.50;83.10
3055;DHT22;1537;52.018;8.542;2023-09-07T08:04:53;33.50;82.80
3055;DHT22;1537;52.018;8.542;2023-09-07T08:08:17;33.00;83.80
3055;DHT22;1537;52.018;8.542;2023-09-07T08:11:41;33.60;82.90
3055;DHT22;1537;52.018;8.542;2023-09-07T08:15:09;33.90;81.60
3055;DHT22;1537;52.018;8.542;2023-09-07T08:18:34;34.40;79.60
3055;DHT22;1537;52.018;8.542;2023-09-07T08:21:58;34.40;79.20
3055;DHT22;1537;52.018;8.542;2023-09-07T08:25:25;34.50;79.00
3055;DHT22;1537;52.018;8.542;2023-09-07T08:28:50;34.00;79.70
3055;DHT22;1537;52.018;8.542;2023-09-07T08:32:15;33.70;79.00
3055;DHT22;1537;52.018;8.542;2023-09-07T08:35:39;33.40;79.30
3055;DHT22;1537;52.018;8.542;2023-09-07T08:39:07;32.60;80.90
3055;DHT22;1537;52.018;8.542;2023-09-07T08:42:35;33.30;80.00
3055;DHT22;1537;52.018;8.542;2023-09-07T08:46:06;33.90;79.30
3055;DHT22;1537;52.018;8.542;2023-09-07T08:49:36;35.60;76.60
3055;DHT22;1537;52.018;8.542;2023-09-07T08:52:59;35.90;74.50
3055;DHT22;1537;52.018;8.542;2023-09-07T08:56:26;35.70;74.20
3055;DHT22;1537;52.018;8.542;2023-09-07T08:59:50;34.60;74.60
3055;DHT22;1537;52.018;8.542;2023-09-07T09:03:14;34.70;75.00
3055;DHT22;1537;52.018;8.542;2023-09-07T09:06:39;35.20;75.30
3055;DHT22;1537;52.018;8.542;2023-09-07T09:10:03;35.60;74.50
3055;DHT22;1537;52.018;8.542;2023-09-07T09:13:27;35.30;75.00
3055;DHT22;1537;52.018;8.542;2023-09-07T09:16:53;35.20;74.30
3055;DHT22;1537;52.018;8.542;2023-09-07T09:20:26;35.50;74.40
3055;DHT22;1537;52.018;8.542;2023-09-07T09:23:52;35.60;74.00
3055;DHT22;1537;52.018;8.542;2023-09-07T09:27:16;35.50;73.30
3055;DHT22;1537;52.018;8.542;2023-09-07T09:30:41;33.60;76.70
3055;DHT22;1537;52.018;8.542;2023-09-07T09:34:06;34.40;76.80
3055;DHT22;1537;52.018;8.542;2023-09-07T09:37:30;34.40;75.90
3055;DHT22;1537;52.018;8.542;2023-09-07T09:40:56;35.00;74.10
3055;DHT22;1537;52.018;8.542;2023-09-07T09:44:21;34.70;75.10
3055;DHT22;1537;52.018;8.542;2023-09-07T09:47:49;36.40;72.60
3055;DHT22;1537;52.018;8.542;2023-09-07T09:51:15;36.90;71.40
3055;DHT22;1537;52.018;8.542;2023-09-07T09:54:41;36.50;70.90
3055;DHT22;1537;52.018;8.542;2023-09-07T09:58:07;36.60;70.20
3055;DHT22;1537;52.018;8.542;2023-09-07T10:01:38;36.00;71.40
3055;DHT22;1537;52.018;8.542;2023-09-07T10:05:04;35.20;72.10
3055;DHT22;1537;52.018;8.542;2023-09-07T10:08:32;35.70;71.60
3055;DHT22;1537;52.018;8.542;2023-09-07T10:11:57;35.40;71.70
3055;DHT22;1537;52.018;8.542;2023-09-07T10:15:27;35.70;71.60
3055;DHT22;1537;52.018;8.542;2023-09-07T10:18:52;36.20;70.80
3055;DHT22;1537;52.018;8.542;2023-09-07T10:22:21;35.40;71.60
3055;DHT22;1537;52.018;8.542;2023-09-07T10:25:49;34.10;73.40
3055;DHT22;1537;52.018;8.542;2023-09-07T10:29:13;34.20;73.10
3055;DHT22;1537;52.018;8.542;2023-09-07T10:32:44;34.10;72.50
3055;DHT22;1537;52.018;8.542;2023-09-07T10:36:08;34.20;73.70
3055;DHT22;1537;52.018;8.542;2023-09-07T10:39:44;35.10;71.90
3055;DHT22;1537;52.018;8.542;2023-09-07T10:43:08;33.00;75.30
3055;DHT22;1537;52.018;8.542;2023-09-07T10:46:32;33.60;74.70
3055;DHT22;1537;52.018;8.542;2023-09-07T10:49:58;34.20;74.10
3055;DHT22;1537;52.018;8.542;2023-09-07T10:53:27;32.80;75.10
3055;DHT22;1537;52.018;8.542;2023-09-07T10:56:52;31.80;75.80
3055;DHT22;1537;52.018;8.542;2023-09-07T11:00:20;32.20;74.90
3055;DHT22;1537;52.018;8.542;2023-09-07T11:03:44;32.00;74.90
3055;DHT22;1537;52.018;8.542;2023-09-07T11:07:11;32.20;75.40
3055;DHT22;1537;52.018;8.542;2023-09-07T11:10:36;31.60;76.30
3055;DHT22;1537;52.018;8.542;2023-09-07T11:14:02;30.30;76.90
3055;DHT22;1537;52.018;8.542;2023-09-07T11:17:26;30.00;76.40
3055;DHT22;1537;52.018;8.542;2023-09-07T11:20:51;29.50;77.50
3055;DHT22;1537;52.018;8.542;2023-09-07T11:24:17;29.50;77.10
3055;DHT22;1537;52.018;8.542;2023-09-07T11:27:41;29.00;78.20
3055;DHT22;1537;52.018;8.542;2023-09-07T11:31:04;28.70;78.80
3055;DHT22;1537;52.018;8.542;2023-09-07T11:34:28;28.50;79.10
3055;DHT22;1537;52.018;8.542;2023-09-07T11:37:53;28.30;79.70
3055;DHT22;1537;52.018;8.542;2023-09-07T11:41:19;28.30;79.50
3055;DHT22;1537;52.018;8.542;2023-09-07T11:44:42;28.40;79.30
3055;DHT22;1537;52.018;8.542;2023-09-07T11:48:07;28.50;79.70
3055;DHT22;1537;52.018;8.542;2023-09-07T11:51:32;28.30;79.10
3055;DHT22;1537;52.018;8.542;2023-09-07T11:54:57;28.10;79.90
3055;DHT22;1537;52.018;8.542;2023-09-07T11:58:23;28.50;78.10
3055;DHT22;1537;52.018;8.542;2023-09-07T12:01:53;28.70;77.70
3055;DHT22;1537;52.018;8.542;2023-09-07T12:05:17;28.90;78.10
3055;DHT22;1537;52.018;8.542;2023-09-07T12:08:58;28.90;76.70
3055;DHT22;1537;52.018;8.542;2023-09-07T12:12:23;28.90;76.70
3055;DHT22;1537;52.018;8.542;2023-09-07T12:15:53;28.90;76.40
3055;DHT22;1537;52.018;8.542;2023-09-07T12:19:19;28.70;75.40
3055;DHT22;1537;52.018;8.542;2023-09-07T12:22:42;28.60;77.00
3055;DHT22;1537;52.018;8.542;2023-09-07T12:26:08;28.60;77.50
3055;DHT22;1537;52.018;8.542;2023-09-07T12:29:33;28.80;75.80
3055;DHT22;1537;52.018;8.542;2023-09-07T12:32:59;29.00;77.00
3055;DHT22;1537;52.018;8.542;2023-09-07T12:36:22;29.00;76.80
3055;DHT22;1537;52.018;8.542;2023-09-07T12:39:46;29.10;77.70
3055;DHT22;1537;52.018;8.542;2023-09-07T12:43:10;29.00;77.90
3055;DHT22;1537;52.018;8.542;2023-09-07T12:46:34;28.80;79.30
3055;DHT22;1537;52.018;8.542;2023-09-07T12:50:04;28.80;80.00
3055;DHT22;1537;52.018;8.542;2023-09-07T12:53:30;28.80;79.10
3055;DHT22;1537;52.018;8.542;2023-09-07T12:56:57;29.00;79.50
3055;DHT22;1537;52.018;8.542;2023-09-07T13:00:25;29.20;80.50
3055;DHT22;1537;52.018;8.542;2023-09-07T13:03:48;29.30;79.60
3055;DHT22;1537;52.018;8.542;2023-09-07T13:07:14;29.40;79.20
3055;DHT22;1537;52.018;8.542;2023-09-07T13:10:40;29.40;79.40
3055;DHT22;1537;52.018;8.542;2023-09-07T13:14:05;29.70;78.30
3055;DHT22;1537;52.018;8.542;2023-09-07T13:17:34;29.90;77.80
3055;DHT22;1537;52.018;8.542;2023-09-07T13:20:58;30.00;78.40
3055;DHT22;1537;52.018;8.542;2023-09-07T13:24:24;29.90;77.70
3055;DHT22;1537;52.018;8.542;2023-09-07T13:27:48;29.80;78.10
3055;DHT22;1537;52.018;8.542;2023-09-07T13:31:12;29.60;78.60
3055;DHT22;1537;52.018;8.542;2023-09-07T13:34:36;29.70;79.30
3055;DHT22;1537;52.018;8.542;2023-09-07T13:37:59;29.60;79.60
3055;DHT22;1537;52.018;8.542;2023-09-07T13:41:24;29.70;80.80
3055;DHT22;1537;52.018;8.542;2023-09-07T13:44:48;29.40;79.20
3055;DHT22;1537;52.018;8.542;2023-09-07T13:48:12;29.40;79.60
3055;DHT22;1537;52.018;8.542;2023-09-07T13:51:36;29.30;79.60
3055;DHT22;1537;52.018;8.542;2023-09-07T13:55:02;29.30;80.60
3055;DHT22;1537;52.018;8.542;2023-09-07T13:58:27;29.40;80.10
3055;DHT22;1537;52.018;8.542;2023-09-07T14:01:50;29.40;80.50
3055;DHT22;1537;52.018;8.542;2023-09-07T14:05:15;29.40;80.60
3055;DHT22;1537;52.018;8.542;2023-09-07T14:08:38;29.40;80.50
3055;DHT22;1537;52.018;8.542;2023-09-07T14:12:02;29.30;82.20
3055;DHT22;1537;52.018;8.542;2023-09-07T14:15:27;29.20;80.00
3055;DHT22;1537;52.018;8.542;2023-09-07T14:18:52;29.20;79.90
3055;DHT22;1537;52.018;8.542;2023-09-07T14:22:15;29.20;78.90
3055;DHT22;1537;52.018;8.542;2023-09-07T14:25:39;29.10;79.10
3055;DHT22;1537;52.018;8.542;2023-09-07T14:29:04;29.20;79.00
3055;DHT22;1537;52.018;8.542;2023-09-07T14:32:29;29.10;78.50
3055;DHT22;1537;52.018;8.542;2023-09-07T14:35:53;29.30;78.10
3055;DHT22;1537;52.018;8.542;2023-09-07T14:39:17;29.20;77.50
3055;DHT22;1537;52.018;8.542;2023-09-07T14:42:46;29.20;76.80
3055;DHT22;1537;52.018;8.542;2023-09-07T14:46:10;29.30;77.20
3055;DHT22;1537;52.018;8.542;2023-09-07T14:49:35;29.20;77.20
3055;DHT22;1537;52.018;8.542;2023-09-07T14:52:59;29.30;76.60
3055;DHT22;1537;52.018;8.542;2023-09-07T14:56:24;29.30;76.70
3055;DHT22;1537;52.018;8.542;2023-09-07T14:59:48;29.20;74.90
3055;DHT22;1537;52.018;8.542;2023-09-07T15:03:12;29.10;75.50
3055;DHT22;1537;52.018;8.542;2023-09-07T15:06:38;29.10;76.10
3055;DHT22;1537;52.018;8.542;2023-09-07T15:10:01;29.00;76.60
3055;DHT22;1537;52.018;8.542;2023-09-07T15:13:26;29.00;76.70
3055;DHT22;1537;52.018;8.542;2023-09-07T15:16:51;29.10;76.40
3055;DHT22;1537;52.018;8.542;2023-09-07T15:20:15;29.10;76.30
3055;DHT22;1537;52.018;8.542;2023-09-07T15:23:40;29.10;75.90
3055;DHT22;1537;52.018;8.542;2023-09-07T15:27:09;29.10;76.30
3055;DHT22;1537;52.018;8.542;2023-09-07T15:30:33;29.10;75.90
3055;DHT22;1537;52.018;8.542;2023-09-07T15:33:57;29.10;75.90
3055;DHT22;1537;52.018;8.542;2023-09-07T15:37:20;29.10;76.40
3055;DHT22;1537;52.018;8.542;2023-09-07T15:40:47;29.00;77.00
3055;DHT22;1537;52.018;8.542;2023-09-07T15:44:11;29.10;77.60
3055;DHT22;1537;52.018;8.542;2023-09-07T15:47:35;29.00;77.30
3055;DHT22;1537;52.018;8.542;2023-09-07T15:50:59;29.00;77.30
3055;DHT22;1537;52.018;8.542;2023-09-07T15:54:22;28.90;77.90
3055;DHT22;1537;52.018;8.542;2023-09-07T15:57:47;28.90;78.60
3055;DHT22;1537;52.018;8.542;2023-09-07T16:01:11;28.80;78.50
3055;DHT22;1537;52.018;8.542;2023-09-07T16:04:34;28.80;79.00
3055;DHT22;1537;52.018;8.542;2023-09-07T16:07:58;28.80;79.40
3055;DHT22;1537;52.018;8.542;2023-09-07T16:11:22;28.70;79.50
3055;DHT22;1537;52.018;8.542;2023-09-07T16:14:47;28.70;80.00
3055;DHT22;1537;52.018;8.542;2023-09-07T16:18:11;28.70;79.70
3055;DHT22;1537;52.018;8.542;2023-09-07T16:21:38;28.70;79.50
3055;DHT22;1537;52.018;8.542;2023-09-07T16:25:01;28.60;78.90
3055;DHT22;1537;52.018;8.542;2023-09-07T16:28:25;28.60;79.20
3055;DHT22;1537;52.018;8.542;2023-09-07T16:31:50;28.50;79.30
3055;DHT22;1537;52.018;8.542;2023-09-07T16:35:14;28.50;79.60
3055;DHT22;1537;52.018;8.542;2023-09-07T16:38:39;28.50;80.00
3055;DHT22;1537;52.018;8.542;2023-09-07T16:42:04;28.40;80.90
3055;DHT22;1537;52.018;8.542;2023-09-07T16:45:29;28.40;80.80
3055;DHT22;1537;52.018;8.542;2023-09-07T16:48:54;28.40;81.20
3055;DHT22;1537;52.018;8.542;2023-09-07T16:52:18;28.40;81.40
3055;DHT22;1537;52.018;8.542;2023-09-07T16:55:42;28.20;82.10
3055;DHT22;1537;52.018;8.542;2023-09-07T16:59:06;28.20;82.80
3055;DHT22;1537;52.018;8.542;2023-09-07T17:02:50;28.10;83.00
3055;DHT22;1537;52.018;8.542;2023-09-07T17:06:15;28.00;83.40
3055;DHT22;1537;52.018;8.542;2023-09-07T17:09:39;28.00;84.00
3055;DHT22;1537;52.018;8.542;2023-09-07T17:13:03;27.90;84.30
3055;DHT22;1537;52.018;8.542;2023-09-07T17:16:27;27.80;84.60
3055;DHT22;1537;52.018;8.542;2023-09-07T17:19:51;27.80;85.00
3055;DHT22;1537;52.018;8.542;2023-09-07T17:23:16;27.70;85.60
3055;DHT22;1537;52.018;8.542;2023-09-07T17:26:40;27.60;85.80
3055;DHT22;1537;52.018;8.542;2023-09-07T17:30:05;27.50;86.20
3055;DHT22;1537;52.018;8.542;2023-09-07T17:33:29;27.40;86.50
3055;DHT22;1537;52.018;8.542;2023-09-07T17:36:54;27.40;87.30
3055;DHT22;1537;52.018;8.542;2023-09-07T17:40:19;27.20;87.90
3055;DHT22;1537;52.018;8.542;2023-09-07T17:43:44;27.10;88.50
3055;DHT22;1537;52.018;8.542;2023-09-07T17:47:08;27.00;89.20
3055;DHT22;1537;52.018;8.542;2023-09-07T17:50:32;26.90;89.80
3055;DHT22;1537;52.018;8.542;2023-09-07T17:53:56;26.80;90.80
3055;DHT22;1537;52.018;8.542;2023-09-07T17:57:21;26.60;90.80
3055;DHT22;1537;52.018;8.542;2023-09-07T18:00:45;26.30;90.70
3055;DHT22;1537;52.018;8.542;2023-09-07T18:04:09;26.10;89.80
3055;DHT22;1537;52.018;8.542;2023-09-07T18:07:32;26.00;90.20
3055;DHT22;1537;52.018;8.542;2023-09-07T18:10:56;25.90;88.20
3055;DHT22;1537;52.018;8.542;2023-09-07T18:14:21;25.80;90.10
3055;DHT22;1537;52.018;8.542;2023-09-07T18:17:46;25.60;88.30
3055;DHT22;1537;52.018;8.542;2023-09-07T18:21:10;25.50;86.60
3055;DHT22;1537;52.018;8.542;2023-09-07T18:24:34;25.40;86.10
3055;DHT22;1537;52.018;8.542;2023-09-07T18:27:58;25.30;87.00
3055;DHT22;1537;52.018;8.542;2023-09-07T18:31:26;25.20;87.00
3055;DHT22;1537;52.018;8.542;2023-09-07T18:34:52;25.10;85.70
3055;DHT22;1537;52.018;8.542;2023-09-07T18:38:18;24.90;85.60
3055;DHT22;1537;52.018;8.542;2023-09-07T18:41:44;24.80;85.00
3055;DHT22;1537;52.018;8.542;2023-09-07T18:45:11;24.80;85.50
3055;DHT22;1537;52.018;8.542;2023-09-07T18:48:36;24.70;85.90
3055;DHT22;1537;52.018;8.542;2023-09-07T18:52:00;24.70;85.80
3055;DHT22;1537;52.018;8.542;2023-09-07T18:55:26;24.70;85.80
3055;DHT22;1537;52.018;8.542;2023-09-07T18:58:53;24.70;86.60
3055;DHT22;1537;52.018;8.542;2023-09-07T19:02:22;24.50;85.50
3055;DHT22;1537;52.018;8.542;2023-09-07T19:05:54;24.40;86.30
3055;DHT22;1537;52.018;8.542;2023-09-07T19:09:20;24.30;88.20
3055;DHT22;1537;52.018;8.542;2023-09-07T19:12:47;24.20;87.90
3055;DHT22;1537;52.018;8.542;2023-09-07T19:16:12;24.20;87.80
3055;DHT22;1537;52.018;8.542;2023-09-07T19:19:37;24.10;88.50
3055;DHT22;1537;52.018;8.542;2023-09-07T19:23:04;24.00;88.30
3055;DHT22;1537;52.018;8.542;2023-09-07T19:26:32;23.90;88.80
3055;DHT22;1537;52.018;8.542;2023-09-07T19:29:57;23.80;88.70
3055;DHT22;1537;52.018;8.542;2023-09-07T19:33:22;23.80;89.40
3055;DHT22;1537;52.018;8.542;2023-09-07T19:36:48;23.70;90.10
3055;DHT22;1537;52.018;8.542;2023-09-07T19:40:16;23.60;90.30
3055;DHT22;1537;52.018;8.542;2023-09-07T19:43:45;23.50;90.30
3055;DHT22;1537;52.018;8.542;2023-09-07T19:47:09;23.40;90.50
3055;DHT22;1537;52.018;8.542;2023-09-07T19:50:36;23.20;90.80
3055;DHT22;1537;52.018;8.542;2023-09-07T19:53:59;23.20;91.20
3055;DHT22;1537;52.018;8.542;2023-09-07T19:57:25;23.10;91.10
3055;DHT22;1537;52.018;8.542;2023-09-07T20:00:48;22.90;91.50
3055;DHT22;1537;52.018;8.542;2023-09-07T20:04:12;22.80;91.70
3055;DHT22;1537;52.018;8.542;2023-09-07T20:07:36;22.80;92.20
3055;DHT22;1537;52.018;8.542;2023-09-07T20:11:04;22.70;92.40
3055;DHT22;1537;52.018;8.542;2023-09-07T20:14:29;22.60;92.50
3055;DHT22;1537;52.018;8.542;2023-09-07T20:17:53;22.60;92.50
3055;DHT22;1537;52.018;8.542;2023-09-07T20:21:17;22.50;92.60
3055;DHT22;1537;52.018;8.542;2023-09-07T20:24:41;22.40;92.70
3055;DHT22;1537;52.018;8.542;2023-09-07T20:28:05;22.30;93.20
3055;DHT22;1537;52.018;8.542;2023-09-07T20:31:30;22.20;93.10
3055;DHT22;1537;52.018;8.542;2023-09-07T20:34:54;22.20;93.20
3055;DHT22;1537;52.018;8.542;2023-09-07T20:38:17;22.20;93.40
3055;DHT22;1537;52.018;8.542;2023-09-07T20:41:41;22.10;93.50
3055;DHT22;1537;52.018;8.542;2023-09-07T20:45:05;22.10;94.00
3055;DHT22;1537;52.018;8.542;2023-09-07T20:48:31;22.00;93.70
3055;DHT22;1537;52.018;8.542;2023-09-07T20:51:56;22.00;93.90
3055;DHT22;1537;52.018;8.542;2023-09-07T20:55:20;21.90;94.10
3055;DHT22;1537;52.018;8.542;2023-09-07T20:58:44;21.90;94.30
3055;DHT22;1537;52.018;8.542;2023-09-07T21:02:09;21.80;94.30
3055;DHT22;1537;52.018;8.542;2023-09-07T21:05:34;21.80;94.50
3055;DHT22;1537;52.018;8.542;2023-09-07T21:08:58;21.80;94.60
3055;DHT22;1537;52.018;8.542;2023-09-07T21:12:21;21.70;94.70
3055;DHT22;1537;52.018;8.542;2023-09-07T21:15:45;21.60;95.00
3055;DHT22;1537;52.018;8.542;2023-09-07T21:19:09;21.50;95.30
3055;DHT22;1537;52.018;8.542;2023-09-07T21:22:34;21.50;95.20
3055;DHT22;1537;52.018;8.542;2023-09-07T21:25:57;21.40;95.30
3055;DHT22;1537;52.018;8.542;2023-09-07T21:29:21;21.30;95.50
3055;DHT22;1537;52.018;8.542;2023-09-07T21:32:45;21.10;95.90
3055;DHT22;1537;52.018;8.542;2023-09-07T21:36:09;21.00;96.20
3055;DHT22;1537;52.018;8.542;2023-09-07T21:39:34;20.90;96.50
3055;DHT22;1537;52.018;8.542;2023-09-07T21:42:58;20.80;96.70
3055;DHT22;1537;52.018;8.542;2023-09-07T21:46:22;20.70;97.10
3055;DHT22;1537;52.018;8.542;2023-09-07T21:49:47;20.60;97.20
3055;DHT22;1537;52.018;8.542;2023-09-07T21:53:11;20.50;97.50
3055;DHT22;1537;52.018;8.542;2023-09-07T21:56:37;20.40;97.80
3055;DHT22;1537;52.018;8.542;2023-09-07T22:00:04;20.30;98.10
3055;DHT22;1537;52.018;8.542;2023-09-07T22:03:33;20.30;98.30
3055;DHT22;1537;52.018;8.542;2023-09-07T22:06:57;20.30;98.30
3055;DHT22;1537;52.018;8.542;2023-09-07T22:10:21;20.30;98.40
3055;DHT22;1537;52.018;8.542;2023-09-07T22:13:47;20.30;98.50
3055;DHT22;1537;52.018;8.542;2023-09-07T22:17:12;20.20;98.70
3055;DHT22;1537;52.018;8.542;2023-09-07T22:20:36;20.20;98.80